sensor_id;sensor_type;location;lat;lon;timestamp;temperature;humidity
22629;DHT22;11481;53.694;9.910;2022-08-20T00:01:34;20.20;99.90
22629;DHT22;11481;53.694;9.910;2022-08-20T00:04:01;20.20;99.90
22629;DHT22;11481;53.694;9.910;2022-08-20T00:06:28;20.20;99.90
22629;DHT22;11481;53.694;9.910;2022-08-20T00:08:54;20.30;99.90
22629;DHT22;11481;53.694;9.910;2022-08-20T00:11:24;20.20;99.90
22629;DHT22;11481;53.694;9.910;2022-08-20T00:13:57;20.20;99.90
22629;DHT22;11481;53.694;9.910;2022-08-20T00:16:26;20.20;99.90
22629;DHT22;11481;53.694;9.910;2022-08-20T00:18:53;20.10;99.90
22629;DHT22;11481;53.694;9.910;2022-08-20T00:21:21;20.00;99.90
22629;DHT22;11481;53.694;9.910;2022-08-20T00:23:50;20.00;99.90
22629;DHT22;11481;53.694;9.910;2022-08-20T00:26:18;19.90;99.90
22629;DHT22;11481;53.694;9.910;2022-08-20T00:28:46;19.90;99.90
22629;DHT22;11481;53.694;9.910;2022-08-20T00:31:16;19.80;99.90
22629;DHT22;11481;53.694;9.910;2022-08-20T00:33:45;19.80;99.90
22629;DHT22;11481;53.694;9.910;2022-08-20T00:36:13;19.60;99.90
22629;DHT22;11481;53.694;9.910;2022-08-20T00:38:45;19.60;99.90
22629;DHT22;11481;53.694;9.910;2022-08-20T00:41:16;19.60;99.90
22629;DHT22;11481;53.694;9.910;2022-08-20T00:44:03;19.60;99.90
22629;DHT22;11481;53.694;9.910;2022-08-20T00:46:31;19.60;99.90
22629;DHT22;11481;53.694;9.910;2022-08-20T00:48:58;19.60;99.90
22629;DHT22;11481;53.694;9.910;2022-08-20T00:54:13;19.60;99.90
22629;DHT22;11481;53.694;9.910;2022-08-20T00:56:43;19.70;99.90
22629;DHT22;11481;53.694;9.910;2022-08-20T00:59:15;19.80;99.90
22629;DHT22;11481;53.694;9.910;2022-08-20T01:01:44;19.90;99.90
22629;DHT22;11481;53.694;9.910;2022-08-20T01:04:31;20.10;99.90
22629;DHT22;11481;53.694;9.910;2022-08-20T01:06:59;20.10;99.90
22629;DHT22;11481;53.694;9.910;2022-08-20T01:09:26;20.20;99.90
22629;DHT22;11481;53.694;9.910;2022-08-20T01:12:14;20.20;99.90
22629;DHT22;11481;53.694;9.910;2022-08-20T01:14:42;20.30;99.90
22629;DHT22;11481;53.694;9.910;2022-08-20T01:17:12;20.40;99.90
22629;DHT22;11481;53.694;9.910;2022-08-20T01:20:07;20.30;99.90
22629;DHT22;11481;53.694;9.910;2022-08-20T01:28:17;20.30;99.90
22629;DHT22;11481;53.694;9.910;2022-08-20T01:30:45;20.30;99.90
22629;DHT22;11481;53.694;9.910;2022-08-20T01:33:12;20.30;99.90
22629;DHT22;11481;53.694;9.910;2022-08-20T01:35:41;20.30;99.90
22629;DHT22;11481;53.694;9.910;2022-08-20T01:38:08;20.30;99.90
22629;DHT22;11481;53.694;9.910;2022-08-20T01:43:10;20.40;99.90
22629;DHT22;11481;53.694;9.910;2022-08-20T01:45:39;20.40;99.90
22629;DHT22;11481;53.694;9.910;2022-08-20T01:48:06;20.30;99.90
22629;DHT22;11481;53.694;9.910;2022-08-20T01:50:35;20.20;99.90
22629;DHT22;11481;53.694;9.910;2022-08-20T01:53:20;20.20;99.90
22629;DHT22;11481;53.694;9.910;2022-08-20T01:55:48;20.10;99.90
22629;DHT22;11481;53.694;9.910;2022-08-20T01:58:15;20.00;99.90
22629;DHT22;11481;53.694;9.910;2022-08-20T02:00:42;19.80;99.90
22629;DHT22;11481;53.694;9.910;2022-08-20T02:03:08;19.80;99.90
22629;DHT22;11481;53.694;9.910;2022-08-20T02:05:35;19.80;99.90
22629;DHT22;11481;53.694;9.910;2022-08-20T02:08:03;19.80;99.90
22629;DHT22;11481;53.694;9.910;2022-08-20T02:10:30;19.80;99.90
22629;DHT22;11481;53.694;9.910;2022-08-20T02:12:59;19.70;99.90
22629;DHT22;11481;53.694;9.910;2022-08-20T02:15:26;19.60;99.90
22629;DHT22;11481;53.694;9.910;2022-08-20T02:18:09;19.60;99.90
22629;DHT22;11481;53.694;9.910;2022-08-20T02:20:38;19.50;99.90
22629;DHT22;11481;53.694;9.910;2022-08-20T02:23:07;19.40;99.90
22629;DHT22;11481;53.694;9.910;2022-08-20T02:25:35;19.40;99.90
22629;DHT22;11481;53.694;9.910;2022-08-20T02:28:05;19.40;99.90
22629;DHT22;11481;53.694;9.910;2022-08-20T02:30:36;19.40;99.90
22629;DHT22;11481;53.694;9.910;2022-08-20T02:33:06;19.40;99.90
22629;DHT22;11481;53.694;9.910;2022-08-20T02:35:36;19.40;99.90
22629;DHT22;11481;53.694;9.910;2022-08-20T02:38:03;19.40;99.90
22629;DHT22;11481;53.694;9.910;2022-08-20T02:40:30;19.60;99.90
22629;DHT22;11481;53.694;9.910;2022-08-20T02:42:58;19.60;99.90
22629;DHT22;11481;53.694;9.910;2022-08-20T02:45:26;19.70;99.90
22629;DHT22;11481;53.694;9.910;2022-08-20T02:47:53;19.70;99.90
22629;DHT22;11481;53.694;9.910;2022-08-20T02:50:24;19.70;99.90
22629;DHT22;11481;53.694;9.910;2022-08-20T02:52:51;19.70;99.90
22629;DHT22;11481;53.694;9.910;2022-08-20T02:55:19;19.80;99.90
22629;DHT22;11481;53.694;9.910;2022-08-20T02:57:57;19.80;99.90
22629;DHT22;11481;53.694;9.910;2022-08-20T03:00:27;19.80;99.90
22629;DHT22;11481;53.694;9.910;2022-08-20T03:03:08;19.80;99.90
22629;DHT22;11481;53.694;9.910;2022-08-20T03:05:38;19.80;99.90
22629;DHT22;11481;53.694;9.910;2022-08-20T03:08:08;19.80;99.90
22629;DHT22;11481;53.694;9.910;2022-08-20T03:10:36;19.80;99.90
22629;DHT22;11481;53.694;9.910;2022-08-20T03:13:05;19.70;99.90
22629;DHT22;11481;53.694;9.910;2022-08-20T03:15:33;19.70;99.90
22629;DHT22;11481;53.694;9.910;2022-08-20T03:18:00;19.80;99.90
22629;DHT22;11481;53.694;9.910;2022-08-20T03:20:27;19.90;99.90
22629;DHT22;11481;53.694;9.910;2022-08-20T03:22:54;20.00;99.90
22629;DHT22;11481;53.694;9.910;2022-08-20T03:25:21;20.10;99.90
22629;DHT22;11481;53.694;9.910;2022-08-20T03:27:49;20.00;99.90
22629;DHT22;11481;53.694;9.910;2022-08-20T03:30:21;20.00;99.90
22629;DHT22;11481;53.694;9.910;2022-08-20T03:32:48;20.00;99.90
22629;DHT22;11481;53.694;9.910;2022-08-20T03:35:16;20.00;99.90
22629;DHT22;11481;53.694;9.910;2022-08-20T03:37:43;20.00;99.90
22629;DHT22;11481;53.694;9.910;2022-08-20T03:40:21;20.00;99.90
22629;DHT22;11481;53.694;9.910;2022-08-20T03:42:48;20.00;99.90
22629;DHT22;11481;53.694;9.910;2022-08-20T03:45:15;20.00;99.90
22629;DHT22;11481;53.694;9.910;2022-08-20T03:47:46;20.10;99.90
22629;DHT22;11481;53.694;9.910;2022-08-20T03:50:13;20.20;99.90
22629;DHT22;11481;53.694;9.910;2022-08-20T03:52:50;20.10;99.90
22629;DHT22;11481;53.694;9.910;2022-08-20T03:55:18;20.20;99.90
22629;DHT22;11481;53.694;9.910;2022-08-20T03:57:51;20.20;99.90
22629;DHT22;11481;53.694;9.910;2022-08-20T04:00:39;20.20;99.90
22629;DHT22;11481;53.694;9.910;2022-08-20T04:03:08;20.20;99.90
22629;DHT22;11481;53.694;9.910;2022-08-20T04:05:36;20.20;99.90
22629;DHT22;11481;53.694;9.910;2022-08-20T04:08:12;20.30;99.90
22629;DHT22;11481;53.694;9.910;2022-08-20T04:10:40;20.20;99.90
22629;DHT22;11481;53.694;9.910;2022-08-20T04:13:07;20.20;99.90
22629;DHT22;11481;53.694;9.910;2022-08-20T04:15:36;20.20;99.90
22629;DHT22;11481;53.694;9.910;2022-08-20T04:18:06;20.20;99.90
22629;DHT22;11481;53.694;9.910;2022-08-20T04:20:34;20.20;99.90
22629;DHT22;11481;53.694;9.910;2022-08-20T04:23:02;20.20;99.90
22629;DHT22;11481;53.694;9.910;2022-08-20T04:25:31;20.20;99.90
22629;DHT22;11481;53.694;9.910;2022-08-20T04:28:03;20.20;99.90
22629;DHT22;11481;53.694;9.910;2022-08-20T04:30:31;20.20;99.90
22629;DHT22;11481;53.694;9.910;2022-08-20T04:32:59;20.20;99.90
22629;DHT22;11481;53.694;9.910;2022-08-20T04:35:27;20.10;99.90
22629;DHT22;11481;53.694;9.910;2022-08-20T04:38:02;19.90;99.90
22629;DHT22;11481;53.694;9.910;2022-08-20T04:40:29;19.80;99.90
22629;DHT22;11481;53.694;9.910;2022-08-20T04:43:15;19.80;99.90
22629;DHT22;11481;53.694;9.910;2022-08-20T04:45:42;19.80;99.90
22629;DHT22;11481;53.694;9.910;2022-08-20T04:48:10;19.80;99.90
22629;DHT22;11481;53.694;9.910;2022-08-20T04:50:42;19.80;99.90
22629;DHT22;11481;53.694;9.910;2022-08-20T04:53:11;19.80;99.90
22629;DHT22;11481;53.694;9.910;2022-08-20T04:55:41;19.90;99.90
22629;DHT22;11481;53.694;9.910;2022-08-20T04:58:11;20.00;99.90
22629;DHT22;11481;53.694;9.910;2022-08-20T05:00:38;20.00;99.90
22629;DHT22;11481;53.694;9.910;2022-08-20T05:03:05;20.00;99.90
22629;DHT22;11481;53.694;9.910;2022-08-20T05:05:33;20.00;99.90
22629;DHT22;11481;53.694;9.910;2022-08-20T05:08:01;20.10;99.90
22629;DHT22;11481;53.694;9.910;2022-08-20T05:10:28;20.10;99.90
22629;DHT22;11481;53.694;9.910;2022-08-20T05:12:55;20.20;99.90
22629;DHT22;11481;53.694;9.910;2022-08-20T05:15:23;20.20;99.90
22629;DHT22;11481;53.694;9.910;2022-08-20T05:17:57;20.30;99.90
22629;DHT22;11481;53.694;9.910;2022-08-20T05:20:26;20.30;99.90
22629;DHT22;11481;53.694;9.910;2022-08-20T05:22:57;20.30;99.90
22629;DHT22;11481;53.694;9.910;2022-08-20T05:25:27;20.40;99.90
22629;DHT22;11481;53.694;9.910;2022-08-20T05:28:02;20.40;99.90
22629;DHT22;11481;53.694;9.910;2022-08-20T05:30:31;20.40;99.90
22629;DHT22;11481;53.694;9.910;2022-08-20T05:33:01;20.40;99.90
22629;DHT22;11481;53.694;9.910;2022-08-20T05:35:30;20.30;99.90
22629;DHT22;11481;53.694;9.910;2022-08-20T05:38:00;20.30;99.90
22629;DHT22;11481;53.694;9.910;2022-08-20T05:40:27;20.20;99.90
22629;DHT22;11481;53.694;9.910;2022-08-20T05:42:54;20.20;99.90
22629;DHT22;11481;53.694;9.910;2022-08-20T05:45:20;20.10;99.90
22629;DHT22;11481;53.694;9.910;2022-08-20T05:47:47;20.20;99.90
22629;DHT22;11481;53.694;9.910;2022-08-20T05:50:22;20.10;99.90
22629;DHT22;11481;53.694;9.910;2022-08-20T05:52:49;20.10;99.90
22629;DHT22;11481;53.694;9.910;2022-08-20T05:55:16;20.10;99.90
22629;DHT22;11481;53.694;9.910;2022-08-20T05:57:42;20.10;99.90
22629;DHT22;11481;53.694;9.910;2022-08-20T06:00:13;20.10;99.90
22629;DHT22;11481;53.694;9.910;2022-08-20T06:02:40;20.10;99.90
22629;DHT22;11481;53.694;9.910;2022-08-20T06:05:25;20.10;99.90
22629;DHT22;11481;53.694;9.910;2022-08-20T06:07:53;20.10;99.90
22629;DHT22;11481;53.694;9.910;2022-08-20T06:10:33;20.10;99.90
22629;DHT22;11481;53.694;9.910;2022-08-20T06:13:00;20.10;99.90
22629;DHT22;11481;53.694;9.910;2022-08-20T06:15:29;20.10;99.90
22629;DHT22;11481;53.694;9.910;2022-08-20T06:17:56;20.10;99.90
22629;DHT22;11481;53.694;9.910;2022-08-20T06:20:24;20.20;99.90
22629;DHT22;11481;53.694;9.910;2022-08-20T06:22:51;20.20;99.90
22629;DHT22;11481;53.694;9.910;2022-08-20T06:25:18;20.20;99.90
22629;DHT22;11481;53.694;9.910;2022-08-20T06:27:45;20.20;99.90
22629;DHT22;11481;53.694;9.910;2022-08-20T06:30:13;20.20;99.90
22629;DHT22;11481;53.694;9.910;2022-08-20T06:32:40;20.20;99.90
22629;DHT22;11481;53.694;9.910;2022-08-20T06:35:09;20.30;99.90
22629;DHT22;11481;53.694;9.910;2022-08-20T06:37:38;20.30;99.90
22629;DHT22;11481;53.694;9.910;2022-08-20T06:40:13;20.40;99.90
22629;DHT22;11481;53.694;9.910;2022-08-20T06:42:40;20.50;99.90
22629;DHT22;11481;53.694;9.910;2022-08-20T06:45:17;20.40;99.90
22629;DHT22;11481;53.694;9.910;2022-08-20T06:47:46;20.50;99.90
22629;DHT22;11481;53.694;9.910;2022-08-20T06:50:17;20.60;99.90
22629;DHT22;11481;53.694;9.910;2022-08-20T06:52:44;20.60;99.90
22629;DHT22;11481;53.694;9.910;2022-08-20T06:55:28;20.60;99.90
22629;DHT22;11481;53.694;9.910;2022-08-20T06:58:04;20.70;99.90
22629;DHT22;11481;53.694;9.910;2022-08-20T07:00:31;20.80;99.90
22629;DHT22;11481;53.694;9.910;2022-08-20T07:02:59;20.90;99.90
22629;DHT22;11481;53.694;9.910;2022-08-20T07:05:27;20.90;99.90
22629;DHT22;11481;53.694;9.910;2022-08-20T07:07:55;20.90;99.90
22629;DHT22;11481;53.694;9.910;2022-08-20T07:10:28;21.00;99.90
22629;DHT22;11481;53.694;9.910;2022-08-20T07:12:56;21.10;99.90
22629;DHT22;11481;53.694;9.910;2022-08-20T07:15:25;21.10;99.90
22629;DHT22;11481;53.694;9.910;2022-08-20T07:17:55;21.10;99.90
22629;DHT22;11481;53.694;9.910;2022-08-20T07:20:28;20.90;99.90
22629;DHT22;11481;53.694;9.910;2022-08-20T07:22:54;21.10;99.90
22629;DHT22;11481;53.694;9.910;2022-08-20T07:25:22;21.10;99.90
22629;DHT22;11481;53.694;9.910;2022-08-20T07:27:50;21.10;99.90
22629;DHT22;11481;53.694;9.910;2022-08-20T07:30:25;21.10;99.90
22629;DHT22;11481;53.694;9.910;2022-08-20T07:33:24;21.10;99.90
22629;DHT22;11481;53.694;9.910;2022-08-20T07:35:55;21.20;99.90
22629;DHT22;11481;53.694;9.910;2022-08-20T07:38:23;21.10;99.90
22629;DHT22;11481;53.694;9.910;2022-08-20T07:40:52;21.10;99.90
22629;DHT22;11481;53.694;9.910;2022-08-20T07:43:19;21.10;99.90
22629;DHT22;11481;53.694;9.910;2022-08-20T07:45:53;21.20;99.90
22629;DHT22;11481;53.694;9.910;2022-08-20T07:48:24;21.20;99.90
22629;DHT22;11481;53.694;9.910;2022-08-20T07:50:58;21.40;99.90
22629;DHT22;11481;53.694;9.910;2022-08-20T07:53:26;21.60;99.90
22629;DHT22;11481;53.694;9.910;2022-08-20T07:55:59;21.70;99.90
22629;DHT22;11481;53.694;9.910;2022-08-20T07:58:26;21.70;99.90
22629;DHT22;11481;53.694;9.910;2022-08-20T08:00:59;21.80;99.90
22629;DHT22;11481;53.694;9.910;2022-08-20T08:03:26;21.60;99.90
22629;DHT22;11481;53.694;9.910;2022-08-20T08:06:15;21.60;99.90
22629;DHT22;11481;53.694;9.910;2022-08-20T08:09:01;21.70;99.90
22629;DHT22;11481;53.694;9.910;2022-08-20T08:11:28;21.90;99.90
22629;DHT22;11481;53.694;9.910;2022-08-20T08:13:55;22.00;99.90
22629;DHT22;11481;53.694;9.910;2022-08-20T08:16:21;22.00;99.90
22629;DHT22;11481;53.694;9.910;2022-08-20T08:18:52;22.00;99.90
22629;DHT22;11481;53.694;9.910;2022-08-20T08:21:21;21.80;99.90
22629;DHT22;11481;53.694;9.910;2022-08-20T08:23:49;21.80;99.90
22629;DHT22;11481;53.694;9.910;2022-08-20T08:26:16;22.00;99.90
22629;DHT22;11481;53.694;9.910;2022-08-20T08:28:45;22.00;99.90
22629;DHT22;11481;53.694;9.910;2022-08-20T08:31:11;22.00;99.90
22629;DHT22;11481;53.694;9.910;2022-08-20T08:33:38;22.10;99.90
22629;DHT22;11481;53.694;9.910;2022-08-20T08:36:15;22.00;99.90
22629;DHT22;11481;53.694;9.910;2022-08-20T08:38:43;22.10;99.90
22629;DHT22;11481;53.694;9.910;2022-08-20T08:41:31;22.40;99.90
22629;DHT22;11481;53.694;9.910;2022-08-20T08:44:10;22.20;99.90
22629;DHT22;11481;53.694;9.910;2022-08-20T08:46:40;22.30;99.90
22629;DHT22;11481;53.694;9.910;2022-08-20T08:49:11;22.30;99.90
22629;DHT22;11481;53.694;9.910;2022-08-20T08:51:50;22.40;99.90
22629;DHT22;11481;53.694;9.910;2022-08-20T08:54:20;22.50;99.90
22629;DHT22;11481;53.694;9.910;2022-08-20T08:56:47;22.60;99.90
22629;DHT22;11481;53.694;9.910;2022-08-20T08:59:16;22.50;99.90
22629;DHT22;11481;53.694;9.910;2022-08-20T09:01:52;22.60;99.90
22629;DHT22;11481;53.694;9.910;2022-08-20T09:04:35;22.50;99.90
22629;DHT22;11481;53.694;9.910;2022-08-20T09:07:06;22.50;99.90
22629;DHT22;11481;53.694;9.910;2022-08-20T09:09:36;22.60;99.90
22629;DHT22;11481;53.694;9.910;2022-08-20T09:12:07;22.40;99.90
22629;DHT22;11481;53.694;9.910;2022-08-20T09:14:34;22.50;99.90
22629;DHT22;11481;53.694;9.910;2022-08-20T09:17:02;22.60;99.90
22629;DHT22;11481;53.694;9.910;2022-08-20T09:19:29;22.60;99.90
22629;DHT22;11481;53.694;9.910;2022-08-20T09:21:56;22.40;99.90
22629;DHT22;11481;53.694;9.910;2022-08-20T09:24:23;22.40;99.90
22629;DHT22;11481;53.694;9.910;2022-08-20T09:26:50;22.70;99.90
22629;DHT22;11481;53.694;9.910;2022-08-20T09:29:16;22.80;99.90
22629;DHT22;11481;53.694;9.910;2022-08-20T09:31:43;23.00;99.90
22629;DHT22;11481;53.694;9.910;2022-08-20T09:34:12;23.00;99.90
22629;DHT22;11481;53.694;9.910;2022-08-20T09:36:38;23.00;99.90
22629;DHT22;11481;53.694;9.910;2022-08-20T09:39:05;23.00;99.90
22629;DHT22;11481;53.694;9.910;2022-08-20T09:41:31;23.00;99.90
22629;DHT22;11481;53.694;9.910;2022-08-20T09:44:00;23.00;99.90
22629;DHT22;11481;53.694;9.910;2022-08-20T09:46:27;22.90;99.90
22629;DHT22;11481;53.694;9.910;2022-08-20T09:48:54;23.10;99.90
22629;DHT22;11481;53.694;9.910;2022-08-20T09:51:22;23.10;99.90
22629;DHT22;11481;53.694;9.910;2022-08-20T09:53:49;23.20;99.90
22629;DHT22;11481;53.694;9.910;2022-08-20T09:56:16;23.00;99.90
22629;DHT22;11481;53.694;9.910;2022-08-20T09:58:48;22.80;99.90
22629;DHT22;11481;53.694;9.910;2022-08-20T10:01:17;22.70;99.90
22629;DHT22;11481;53.694;9.910;2022-08-20T10:03:45;22.80;99.90
22629;DHT22;11481;53.694;9.910;2022-08-20T10:06:17;22.70;99.90
22629;DHT22;11481;53.694;9.910;2022-08-20T10:08:46;22.60;99.90
22629;DHT22;11481;53.694;9.910;2022-08-20T10:11:12;22.50;99.90
22629;DHT22;11481;53.694;9.910;2022-08-20T10:13:39;22.50;99.90
22629;DHT22;11481;53.694;9.910;2022-08-20T10:16:06;22.60;99.90
22629;DHT22;11481;53.694;9.910;2022-08-20T10:18:34;22.80;99.90
22629;DHT22;11481;53.694;9.910;2022-08-20T10:21:02;22.80;99.90
22629;DHT22;11481;53.694;9.910;2022-08-20T10:23:29;23.00;99.90
22629;DHT22;11481;53.694;9.910;2022-08-20T10:25:56;23.10;99.90
22629;DHT22;11481;53.694;9.910;2022-08-20T10:28:22;23.10;99.90
22629;DHT22;11481;53.694;9.910;2022-08-20T10:30:49;23.10;99.90
22629;DHT22;11481;53.694;9.910;2022-08-20T10:33:15;23.10;99.90
22629;DHT22;11481;53.694;9.910;2022-08-20T10:35:42;22.70;99.90
22629;DHT22;11481;53.694;9.910;2022-08-20T10:38:09;22.80;99.90
22629;DHT22;11481;53.694;9.910;2022-08-20T10:40:35;22.80;99.90
22629;DHT22;11481;53.694;9.910;2022-08-20T10:43:02;23.10;99.90
22629;DHT22;11481;53.694;9.910;2022-08-20T10:45:29;23.10;99.90
22629;DHT22;11481;53.694;9.910;2022-08-20T10:47:58;23.00;99.90
22629;DHT22;11481;53.694;9.910;2022-08-20T10:50:25;22.90;99.90
22629;DHT22;11481;53.694;9.910;2022-08-20T10:52:56;22.90;99.90
22629;DHT22;11481;53.694;9.910;2022-08-20T10:55:23;23.20;99.90
22629;DHT22;11481;53.694;9.910;2022-08-20T10:57:50;23.40;99.90
22629;DHT22;11481;53.694;9.910;2022-08-20T11:00:18;23.60;99.90
22629;DHT22;11481;53.694;9.910;2022-08-20T11:02:45;23.60;99.90
22629;DHT22;11481;53.694;9.910;2022-08-20T11:05:12;23.40;99.90
22629;DHT22;11481;53.694;9.910;2022-08-20T11:07:41;23.30;99.90
22629;DHT22;11481;53.694;9.910;2022-08-20T11:10:27;23.40;99.90
22629;DHT22;11481;53.694;9.910;2022-08-20T11:12:54;23.40;99.90
22629;DHT22;11481;53.694;9.910;2022-08-20T11:15:21;23.30;99.90
22629;DHT22;11481;53.694;9.910;2022-08-20T11:17:48;23.50;99.90
22629;DHT22;11481;53.694;9.910;2022-08-20T11:20:17;23.60;99.90
22629;DHT22;11481;53.694;9.910;2022-08-20T11:22:45;23.50;99.90
22629;DHT22;11481;53.694;9.910;2022-08-20T11:25:12;23.30;99.90
22629;DHT22;11481;53.694;9.910;2022-08-20T11:27:42;23.30;99.90
22629;DHT22;11481;53.694;9.910;2022-08-20T11:30:13;23.30;99.90
22629;DHT22;11481;53.694;9.910;2022-08-20T11:32:40;23.10;99.90
22629;DHT22;11481;53.694;9.910;2022-08-20T11:35:07;23.10;99.90
22629;DHT22;11481;53.694;9.910;2022-08-20T11:37:55;23.10;99.90
22629;DHT22;11481;53.694;9.910;2022-08-20T11:40:23;23.10;99.90
22629;DHT22;11481;53.694;9.910;2022-08-20T11:42:50;23.10;99.90
22629;DHT22;11481;53.694;9.910;2022-08-20T11:45:37;23.20;99.90
22629;DHT22;11481;53.694;9.910;2022-08-20T11:48:04;23.30;99.90
22629;DHT22;11481;53.694;9.910;2022-08-20T11:50:31;23.60;99.90
22629;DHT22;11481;53.694;9.910;2022-08-20T11:52:58;23.50;99.90
22629;DHT22;11481;53.694;9.910;2022-08-20T11:55:27;23.40;99.90
22629;DHT22;11481;53.694;9.910;2022-08-20T11:57:55;23.50;99.90
22629;DHT22;11481;53.694;9.910;2022-08-20T12:00:26;23.60;99.90
22629;DHT22;11481;53.694;9.910;2022-08-20T12:03:06;23.40;99.90
22629;DHT22;11481;53.694;9.910;2022-08-20T12:05:36;23.60;99.90
22629;DHT22;11481;53.694;9.910;2022-08-20T12:08:03;23.60;99.90
22629;DHT22;11481;53.694;9.910;2022-08-20T12:10:31;23.60;99.90
22629;DHT22;11481;53.694;9.910;2022-08-20T12:12:57;23.50;99.90
22629;DHT22;11481;53.694;9.910;2022-08-20T12:15:25;23.40;99.90
22629;DHT22;11481;53.694;9.910;2022-08-20T12:17:53;23.50;99.90
22629;DHT22;11481;53.694;9.910;2022-08-20T12:20:20;23.60;99.90
22629;DHT22;11481;53.694;9.910;2022-08-20T12:22:47;23.70;99.90
22629;DHT22;11481;53.694;9.910;2022-08-20T12:25:14;23.80;99.90
22629;DHT22;11481;53.694;9.910;2022-08-20T12:27:41;23.40;99.90
22629;DHT22;11481;53.694;9.910;2022-08-20T12:30:14;23.50;99.90
22629;DHT22;11481;53.694;9.910;2022-08-20T12:32:41;23.50;99.90
22629;DHT22;11481;53.694;9.910;2022-08-20T12:35:09;23.50;99.90
22629;DHT22;11481;53.694;9.910;2022-08-20T12:37:36;23.30;99.90
22629;DHT22;11481;53.694;9.910;2022-08-20T12:40:06;23.40;99.90
22629;DHT22;11481;53.694;9.910;2022-08-20T12:42:33;23.30;99.90
22629;DHT22;11481;53.694;9.910;2022-08-20T12:45:00;23.40;99.90
22629;DHT22;11481;53.694;9.910;2022-08-20T12:47:30;23.40;99.90
22629;DHT22;11481;53.694;9.910;2022-08-20T12:50:05;23.40;99.90
22629;DHT22;11481;53.694;9.910;2022-08-20T12:52:33;23.50;99.90
22629;DHT22;11481;53.694;9.910;2022-08-20T12:55:01;23.50;99.90
22629;DHT22;11481;53.694;9.910;2022-08-20T12:57:41;23.50;99.90
22629;DHT22;11481;53.694;9.910;2022-08-20T13:00:12;23.40;99.90
22629;DHT22;11481;53.694;9.910;2022-08-20T13:02:39;23.50;99.90
22629;DHT22;11481;53.694;9.910;2022-08-20T13:05:11;23.40;99.90
22629;DHT22;11481;53.694;9.910;2022-08-20T13:07:38;23.40;99.90
22629;DHT22;11481;53.694;9.910;2022-08-20T13:10:08;23.40;99.90
22629;DHT22;11481;53.694;9.910;2022-08-20T13:12:35;23.60;99.90
22629;DHT22;11481;53.694;9.910;2022-08-20T13:15:03;23.60;99.90
22629;DHT22;11481;53.694;9.910;2022-08-20T13:17:30;23.70;99.90
22629;DHT22;11481;53.694;9.910;2022-08-20T13:20:08;23.90;99.90
22629;DHT22;11481;53.694;9.910;2022-08-20T13:22:35;23.70;99.90
22629;DHT22;11481;53.694;9.910;2022-08-20T13:25:04;23.80;99.90
22629;DHT22;11481;53.694;9.910;2022-08-20T13:27:31;23.80;99.90
22629;DHT22;11481;53.694;9.910;2022-08-20T13:29:58;23.80;99.90
22629;DHT22;11481;53.694;9.910;2022-08-20T13:32:25;23.70;99.90
22629;DHT22;11481;53.694;9.910;2022-08-20T13:34:52;23.80;99.90
22629;DHT22;11481;53.694;9.910;2022-08-20T13:37:25;23.60;99.90
22629;DHT22;11481;53.694;9.910;2022-08-20T13:39:54;23.60;99.90
22629;DHT22;11481;53.694;9.910;2022-08-20T13:42:21;23.60;99.90
22629;DHT22;11481;53.694;9.910;2022-08-20T13:44:48;23.70;99.90
22629;DHT22;11481;53.694;9.910;2022-08-20T13:47:24;23.60;99.90
22629;DHT22;11481;53.694;9.910;2022-08-20T13:50:00;23.70;99.90
22629;DHT22;11481;53.694;9.910;2022-08-20T13:52:27;23.50;99.90
22629;DHT22;11481;53.694;9.910;2022-08-20T13:54:54;23.50;99.90
22629;DHT22;11481;53.694;9.910;2022-08-20T13:57:22;23.60;99.90
22629;DHT22;11481;53.694;9.910;2022-08-20T13:59:52;23.90;99.90
22629;DHT22;11481;53.694;9.910;2022-08-20T14:02:20;23.90;99.90
22629;DHT22;11481;53.694;9.910;2022-08-20T14:04:47;24.00;99.90
22629;DHT22;11481;53.694;9.910;2022-08-20T14:07:20;24.10;99.90
22629;DHT22;11481;53.694;9.910;2022-08-20T14:09:53;23.80;99.90
22629;DHT22;11481;53.694;9.910;2022-08-20T14:12:20;23.80;99.90
22629;DHT22;11481;53.694;9.910;2022-08-20T14:14:51;23.70;99.90
22629;DHT22;11481;53.694;9.910;2022-08-20T14:17:31;24.00;99.90
22629;DHT22;11481;53.694;9.910;2022-08-20T14:20:00;24.20;99.90
22629;DHT22;11481;53.694;9.910;2022-08-20T14:22:27;23.90;99.90
22629;DHT22;11481;53.694;9.910;2022-08-20T14:24:54;24.00;99.90
22629;DHT22;11481;53.694;9.910;2022-08-20T14:27:22;23.80;99.90
22629;DHT22;11481;53.694;9.910;2022-08-20T14:29:56;24.10;99.90
22629;DHT22;11481;53.694;9.910;2022-08-20T14:32:23;24.30;99.90
22629;DHT22;11481;53.694;9.910;2022-08-20T14:34:49;24.10;99.90
22629;DHT22;11481;53.694;9.910;2022-08-20T14:37:23;24.10;99.90
22629;DHT22;11481;53.694;9.910;2022-08-20T14:39:52;23.80;99.90
22629;DHT22;11481;53.694;9.910;2022-08-20T14:42:20;23.80;99.90
22629;DHT22;11481;53.694;9.910;2022-08-20T14:44:49;24.10;99.90
22629;DHT22;11481;53.694;9.910;2022-08-20T14:49:47;23.80;99.90
22629;DHT22;11481;53.694;9.910;2022-08-20T14:52:15;23.90;99.90
22629;DHT22;11481;53.694;9.910;2022-08-20T14:54:43;24.10;99.90
22629;DHT22;11481;53.694;9.910;2022-08-20T14:57:13;24.10;99.90
22629;DHT22;11481;53.694;9.910;2022-08-20T14:59:40;24.00;99.90
22629;DHT22;11481;53.694;9.910;2022-08-20T15:02:11;24.10;99.90
22629;DHT22;11481;53.694;9.910;2022-08-20T15:04:39;24.00;99.90
22629;DHT22;11481;53.694;9.910;2022-08-20T15:07:13;24.00;99.90
22629;DHT22;11481;53.694;9.910;2022-08-20T15:09:42;24.10;99.90
22629;DHT22;11481;53.694;9.910;2022-08-20T15:12:08;23.90;99.90
22629;DHT22;11481;53.694;9.910;2022-08-20T15:14:35;23.90;99.90
22629;DHT22;11481;53.694;9.910;2022-08-20T15:17:05;24.00;99.90
22629;DHT22;11481;53.694;9.910;2022-08-20T15:19:31;23.90;99.90
22629;DHT22;11481;53.694;9.910;2022-08-20T15:21:58;23.90;99.90
22629;DHT22;11481;53.694;9.910;2022-08-20T15:24:25;24.10;99.90
22629;DHT22;11481;53.694;9.910;2022-08-20T15:26:52;24.50;99.90
22629;DHT22;11481;53.694;9.910;2022-08-20T15:29:18;24.60;99.90
22629;DHT22;11481;53.694;9.910;2022-08-20T15:31:49;24.40;99.90
22629;DHT22;11481;53.694;9.910;2022-08-20T15:34:16;24.40;99.90
22629;DHT22;11481;53.694;9.910;2022-08-20T15:36:44;24.40;99.90
22629;DHT22;11481;53.694;9.910;2022-08-20T15:39:10;24.30;99.90
22629;DHT22;11481;53.694;9.910;2022-08-20T15:41:37;24.30;99.90
22629;DHT22;11481;53.694;9.910;2022-08-20T15:44:04;24.20;99.90
22629;DHT22;11481;53.694;9.910;2022-08-20T15:46:31;24.20;99.90
22629;DHT22;11481;53.694;9.910;2022-08-20T15:49:03;24.20;99.90
22629;DHT22;11481;53.694;9.910;2022-08-20T15:51:41;24.20;99.90
22629;DHT22;11481;53.694;9.910;2022-08-20T15:54:22;24.10;99.90
22629;DHT22;11481;53.694;9.910;2022-08-20T15:57:00;24.00;99.90
22629;DHT22;11481;53.694;9.910;2022-08-20T15:59:55;24.10;99.90